createdAt,value
2017-08-10T00:01:56.570Z,70.75
2017-08-10T00:04:25.319Z,70.97
2017-08-10T00:06:53.682Z,71.46
2017-08-10T00:09:22.812Z,71.44
2017-08-10T00:11:51.452Z,70.49
2017-08-10T00:14:19.816Z,70.29
2017-08-10T00:16:48.216Z,70.55
2017-08-10T00:19:18.062Z,70.87
2017-08-10T00:21:46.424Z,71.31
2017-08-10T00:24:14.795Z,71.35
2017-08-10T00:26:43.443Z,71.41
2017-08-10T00:29:11.784Z,71.21
2017-08-10T00:31:40.133Z,70.21
2017-08-10T00:34:09.770Z,70.56
2017-08-10T00:36:38.123Z,71.12
2017-08-10T00:39:07.246Z,71.14
2017-08-10T00:41:35.981Z,71.69
2017-08-10T00:44:04.346Z,71.02
2017-08-10T00:46:32.713Z,70.81
2017-08-10T00:49:01.363Z,70.82
2017-08-10T00:51:29.749Z,70.93
2017-08-10T00:53:58.108Z,70.78
2017-08-10T00:56:27.744Z,70.29
2017-08-10T00:58:56.115Z,70.17
2017-08-10T01:01:24.456Z,69.57
2017-08-10T01:03:53.148Z,68.93
2017-08-10T01:06:21.502Z,68.73
2017-08-10T01:08:49.876Z,68.65
2017-08-10T01:11:18.508Z,68.93
2017-08-10T01:13:46.862Z,69.19
2017-08-10T01:16:15.220Z,69.45
2017-08-10T01:18:43.874Z,69.27
2017-08-10T01:21:12.222Z,69.58
2017-08-10T01:23:41.343Z,69.34
2017-08-10T01:26:10.337Z,69.45
2017-08-10T01:28:38.673Z,68.99
2017-08-10T01:31:07.025Z,68.97
2017-08-10T01:33:35.657Z,68.43
2017-08-10T01:36:04.787Z,68.40
2017-08-10T01:38:33.123Z,68.97
2017-08-10T01:41:01.869Z,68.83
2017-08-10T01:43:30.249Z,68.54
2017-08-10T01:45:58.600Z,69.35
2017-08-10T01:48:27.896Z,70.25
2017-08-10T01:50:56.248Z,70.15
2017-08-10T01:53:25.402Z,69.81
2017-08-10T01:55:54.161Z,70.17
2017-08-10T01:58:22.529Z,70.21
2017-08-10T02:00:50.895Z,69.68
2017-08-10T02:03:19.669Z,69.59
2017-08-10T02:05:48.009Z,69.98
2017-08-10T02:08:16.355Z,71.08
2017-08-10T02:10:45.155Z,72.14
2017-08-10T02:13:13.498Z,72.65
2017-08-10T02:15:41.874Z,71.61
2017-08-10T02:18:10.709Z,71.70
2017-08-10T02:20:39.074Z,71.66
2017-08-10T02:23:07.430Z,71.63
2017-08-10T02:25:36.071Z,71.06
2017-08-10T02:28:04.459Z,71.23
2017-08-10T02:30:32.821Z,70.57
2017-08-10T02:33:02.071Z,70.06
2017-08-10T02:35:30.432Z,70.11
2017-08-10T02:37:58.788Z,69.31
2017-08-10T02:40:27.454Z,69.82
2017-08-10T02:42:55.816Z,70.28
2017-08-10T02:45:24.165Z,70.28
2017-08-10T02:47:52.797Z,70.06
2017-08-10T02:50:21.146Z,70.78
2017-08-10T02:52:49.546Z,70.87
2017-08-10T02:55:18.543Z,70.33
2017-08-10T02:57:46.886Z,70.40
2017-08-10T03:00:15.263Z,70.32
2017-08-10T03:02:43.895Z,70.57
2017-08-10T03:05:12.251Z,70.49
2017-08-10T03:07:40.622Z,70.27
2017-08-10T03:10:09.427Z,71.03
2017-08-10T03:12:37.780Z,71.08
2017-08-10T03:15:06.121Z,71.23
2017-08-10T03:17:35.011Z,72.04
2017-08-10T03:20:03.370Z,71.73
2017-08-10T03:22:31.749Z,71.14
2017-08-10T03:25:00.543Z,71.46
2017-08-10T03:27:28.888Z,70.99
2017-08-10T03:29:57.266Z,70.05
2017-08-10T03:32:25.922Z,69.74
2017-08-10T03:34:54.261Z,69.53
2017-08-10T03:37:22.633Z,69.59
2017-08-10T03:39:51.363Z,69.18
2017-08-10T03:42:19.712Z,69.09
2017-08-10T03:44:48.082Z,68.92
2017-08-10T03:47:16.717Z,69.07
2017-08-10T03:49:45.087Z,69.55
2017-08-10T03:52:13.443Z,69.59
2017-08-10T03:54:42.317Z,69.51
2017-08-10T03:57:10.675Z,68.92
2017-08-10T03:59:39.028Z,68.57
2017-08-10T04:02:07.730Z,68.21
2017-08-10T04:04:36.089Z,67.82
2017-08-10T04:07:04.445Z,68.22
2017-08-10T04:09:33.103Z,68.16
2017-08-10T04:12:01.442Z,68.09
2017-08-10T04:14:29.798Z,68.74
2017-08-10T04:16:58.419Z,68.79
2017-08-10T04:19:26.769Z,68.27
2017-08-10T04:21:55.167Z,67.73
2017-08-10T04:24:23.886Z,67.56
2017-08-10T04:26:52.230Z,67.41
2017-08-10T04:29:20.578Z,66.99
2017-08-10T04:31:49.563Z,66.99
2017-08-10T04:34:17.947Z,66.57
2017-08-10T04:36:46.309Z,66.44
2017-08-10T04:39:14.998Z,66.61
2017-08-10T04:41:43.455Z,66.69
2017-08-10T04:44:11.857Z,67.96
2017-08-10T04:46:40.610Z,68.62
2017-08-10T04:49:08.978Z,68.52
2017-08-10T04:51:37.317Z,68.80
2017-08-10T04:54:06.095Z,68.48
2017-08-10T04:56:34.453Z,68.10
2017-08-10T04:59:02.803Z,68.41
2017-08-10T05:01:31.714Z,68.37
2017-08-10T05:04:00.068Z,67.75
2017-08-10T05:06:28.464Z,68.35
2017-08-10T05:08:57.782Z,68.15
2017-08-10T05:11:26.145Z,67.86
2017-08-10T05:13:54.488Z,67.69
2017-08-10T05:16:23.125Z,67.75
2017-08-10T05:18:51.481Z,68.09
2017-08-10T05:21:19.827Z,68.25
2017-08-10T05:23:48.471Z,67.90
2017-08-10T05:26:16.856Z,67.18
2017-08-10T05:28:45.235Z,67.92
2017-08-10T05:31:14.318Z,68.88
2017-08-10T05:33:42.673Z,68.03
2017-08-10T05:36:11.065Z,67.81
2017-08-10T05:38:39.702Z,67.51
2017-08-10T05:41:08.124Z,67.15
2017-08-10T05:43:36.481Z,66.51
2017-08-10T05:46:05.120Z,65.82
2017-08-10T05:48:33.466Z,66.17
2017-08-10T05:51:01.855Z,66.92
2017-08-10T05:53:31.406Z,66.39
2017-08-10T05:55:59.751Z,65.99
2017-08-10T05:58:28.122Z,66.00
2017-08-10T06:00:56.748Z,67.69
2017-08-10T06:03:25.087Z,67.89
2017-08-10T06:05:54.216Z,66.52
2017-08-10T06:08:22.983Z,65.69
2017-08-10T06:10:51.326Z,64.66
2017-08-10T06:13:19.678Z,64.59
2017-08-10T06:15:48.624Z,64.10
2017-08-10T06:18:16.977Z,64.57
2017-08-10T06:24:28.825Z,64.93
2017-08-10T06:27:01.153Z,64.77
2017-08-10T06:29:30.158Z,63.14
2017-08-10T06:32:00.995Z,62.38
2017-08-10T06:34:30.516Z,62.33
2017-08-10T06:36:58.879Z,62.61
2017-08-10T06:39:29.089Z,63.49
2017-08-10T06:41:57.462Z,64.29
2017-08-10T06:44:29.442Z,64.75
2017-08-10T06:46:58.168Z,63.99
2017-08-10T06:49:27.582Z,64.07
2017-08-10T06:51:55.937Z,64.47
2017-08-10T06:54:25.586Z,64.25
2017-08-10T06:56:56.073Z,65.35
2017-08-10T06:59:24.464Z,64.69
2017-08-10T07:01:53.186Z,64.45
2017-08-10T07:04:21.556Z,63.51
2017-08-10T07:06:49.931Z,63.12
2017-08-10T07:09:18.593Z,63.04
2017-08-10T07:11:47.707Z,63.17
2017-08-10T07:14:16.763Z,63.17
2017-08-10T07:16:45.851Z,63.38
2017-08-10T07:19:14.252Z,63.34
2017-08-10T07:21:42.903Z,63.19
2017-08-10T07:24:12.319Z,62.97
2017-08-10T07:26:40.904Z,62.49
2017-08-10T07:29:09.434Z,62.96
2017-08-10T07:31:38.343Z,63.33
2017-08-10T07:34:06.724Z,63.27
2017-08-10T07:36:35.924Z,63.76
2017-08-10T07:39:04.763Z,63.98
2017-08-10T07:41:33.537Z,63.70
2017-08-10T07:44:02.882Z,63.43
2017-08-10T07:46:32.413Z,63.20
2017-08-10T07:49:01.580Z,63.94
2017-08-10T07:51:30.542Z,63.64
2017-08-10T07:53:59.464Z,63.93
2017-08-10T07:56:27.890Z,63.81
2017-08-10T07:58:56.275Z,63.86
2017-08-10T08:01:25.031Z,64.77
2017-08-10T08:03:53.496Z,65.44
2017-08-10T08:06:21.838Z,65.76
2017-08-10T08:08:50.663Z,66.39
2017-08-10T08:11:19.248Z,65.33
2017-08-10T08:13:47.598Z,65.67
2017-08-10T08:16:16.844Z,66.18
2017-08-10T08:18:45.943Z,67.35
2017-08-10T08:21:15.017Z,68.25
2017-08-10T08:23:44.923Z,69.55
2017-08-10T08:26:13.303Z,69.53
2017-08-10T08:28:41.673Z,69.76
2017-08-10T08:31:11.322Z,71.00
2017-08-10T08:33:39.694Z,70.90
2017-08-10T08:36:08.061Z,71.13
2017-08-10T08:38:36.670Z,70.73
2017-08-10T08:41:05.038Z,71.70
2017-08-10T08:43:33.394Z,72.41
2017-08-10T08:46:02.393Z,72.89
2017-08-10T08:48:30.768Z,72.50
2017-08-10T08:50:59.120Z,71.77
2017-08-10T08:53:27.861Z,70.25
2017-08-10T08:55:56.238Z,70.14
2017-08-10T08:58:24.616Z,68.36
2017-08-10T09:00:53.308Z,67.11
2017-08-10T09:03:21.674Z,67.09
2017-08-10T09:05:50.027Z,67.26
2017-08-10T09:08:18.968Z,65.65
2017-08-10T09:10:47.349Z,63.76
2017-08-10T09:13:15.707Z,66.43
2017-08-10T09:15:44.497Z,65.08
2017-08-10T09:18:12.830Z,65.98
2017-08-10T09:20:41.226Z,64.99
2017-08-10T09:23:10.045Z,65.09
2017-08-10T09:25:38.387Z,63.48
2017-08-10T09:28:06.788Z,61.38
2017-08-10T09:30:35.635Z,59.51
2017-08-10T09:33:04.025Z,57.35
2017-08-10T09:35:32.421Z,56.91
2017-08-10T09:38:01.380Z,56.53
2017-08-10T09:40:29.734Z,55.86
2017-08-10T09:42:58.118Z,54.08
2017-08-10T09:45:26.987Z,52.73
2017-08-10T09:47:55.384Z,51.57
2017-08-10T09:50:23.728Z,51.36
2017-08-10T09:52:52.487Z,52.65
2017-08-10T09:55:20.853Z,52.11
2017-08-10T09:57:49.209Z,52.53
2017-08-10T10:00:18.070Z,54.59
2017-08-10T10:02:46.460Z,52.79
2017-08-10T10:05:14.822Z,53.27
2017-08-10T10:07:43.474Z,53.42
2017-08-10T10:10:18.549Z,54.43
2017-08-10T10:12:47.876Z,53.66
2017-08-10T10:15:16.319Z,54.08
2017-08-10T10:17:44.770Z,53.90
2017-08-10T10:20:13.707Z,54.72
2017-08-10T10:22:42.070Z,53.60
2017-08-10T10:25:11.194Z,51.75
2017-08-10T10:27:39.967Z,50.13
2017-08-10T10:30:08.324Z,48.94
2017-08-10T10:32:37.849Z,47.42
2017-08-10T10:35:06.859Z,45.75
2017-08-10T10:37:35.223Z,44.22
2017-08-10T10:40:03.582Z,43.37
2017-08-10T10:42:32.291Z,43.39
2017-08-10T10:45:00.649Z,44.48
2017-08-10T10:47:28.991Z,46.57
2017-08-10T10:49:57.670Z,46.45
2017-08-10T10:52:26.062Z,46.53
2017-08-10T10:54:54.412Z,43.69
2017-08-10T10:57:23.247Z,43.34
2017-08-10T10:59:51.586Z,41.75
2017-08-10T11:02:19.969Z,41.17
2017-08-10T11:04:48.685Z,40.51
2017-08-10T11:07:17.099Z,40.97
2017-08-10T11:09:45.442Z,41.06
2017-08-10T11:12:14.302Z,41.93
2017-08-10T11:14:42.714Z,42.77
2017-08-10T11:17:11.081Z,41.96
2017-08-10T11:19:39.955Z,43.04
2017-08-10T11:22:08.446Z,43.65
2017-08-10T11:24:36.867Z,43.36
2017-08-10T11:27:05.564Z,42.85
2017-08-10T11:29:33.942Z,42.53
2017-08-10T11:32:02.358Z,43.39
2017-08-10T11:34:31.457Z,45.26
2017-08-10T11:36:59.833Z,47.06
2017-08-10T11:39:28.198Z,46.60
2017-08-10T11:41:57.160Z,49.22
2017-08-10T11:44:26.331Z,50.63
2017-08-10T11:46:54.771Z,49.59
2017-08-10T11:49:23.551Z,48.53
2017-08-10T11:51:51.923Z,47.75
2017-08-10T11:54:20.281Z,48.01
2017-08-10T11:56:49.009Z,49.60
2017-08-10T11:59:17.406Z,48.86
2017-08-10T12:01:45.751Z,49.20
2017-08-10T12:04:15.234Z,47.07
2017-08-10T12:06:43.606Z,46.59
2017-08-10T12:09:11.951Z,46.06
2017-08-10T12:11:40.621Z,44.73
2017-08-10T12:14:09.026Z,43.85
2017-08-10T12:16:37.401Z,43.85
2017-08-10T12:19:06.068Z,43.82
2017-08-10T12:21:34.444Z,45.05
2017-08-10T12:24:02.812Z,45.36
2017-08-10T12:26:31.615Z,44.75
2017-08-10T12:28:59.949Z,44.16
2017-08-10T12:31:29.103Z,45.19
2017-08-10T12:33:57.769Z,45.09
2017-08-10T12:36:26.382Z,44.10
2017-08-10T12:38:54.727Z,42.94
2017-08-10T12:41:23.356Z,43.37
2017-08-10T12:43:51.781Z,43.53
2017-08-10T12:46:20.147Z,44.10
2017-08-10T12:48:48.995Z,43.52
2017-08-10T12:51:17.333Z,43.38
2017-08-10T12:53:45.683Z,42.45
2017-08-10T12:56:14.557Z,43.19
2017-08-10T12:58:42.971Z,43.61
2017-08-10T13:01:11.306Z,46.21
2017-08-10T13:03:40.004Z,45.84
2017-08-10T13:06:08.341Z,47.16
2017-08-10T13:08:36.701Z,46.77
2017-08-10T13:11:05.441Z,46.03
2017-08-10T13:13:33.934Z,45.05
2017-08-10T13:16:02.341Z,45.08
2017-08-10T13:18:31.802Z,45.57
2017-08-10T13:21:00.171Z,45.34
2017-08-10T13:23:28.520Z,45.01
2017-08-10T13:25:57.221Z,45.12
2017-08-10T13:28:25.574Z,45.69
2017-08-10T13:30:53.943Z,46.47
2017-08-10T13:33:22.740Z,45.58
2017-08-10T13:35:51.857Z,44.28
2017-08-10T13:38:20.193Z,43.75
2017-08-10T13:40:49.197Z,43.46
2017-08-10T13:43:17.576Z,42.68
2017-08-10T13:45:45.939Z,41.78
2017-08-10T13:48:14.596Z,41.35
2017-08-10T13:50:42.961Z,42.38
2017-08-10T13:53:11.326Z,42.03
2017-08-10T13:55:40.246Z,42.55
2017-08-10T13:58:08.619Z,42.39
2017-08-10T14:00:37.002Z,42.06
2017-08-10T14:03:05.749Z,41.33
2017-08-10T14:05:34.103Z,41.65
2017-08-10T14:08:02.492Z,41.23
2017-08-10T14:10:31.156Z,41.19
2017-08-10T14:12:59.513Z,42.16
2017-08-10T14:15:27.863Z,42.58
2017-08-10T14:17:57.190Z,42.78
2017-08-10T14:20:25.598Z,43.11
2017-08-10T14:22:53.973Z,44.29
2017-08-10T14:25:22.629Z,44.23
2017-08-10T14:27:50.988Z,44.09
2017-08-10T14:30:19.363Z,45.07
2017-08-10T14:32:48.020Z,46.26
2017-08-10T14:35:17.581Z,46.94
2017-08-10T14:37:46.527Z,46.91
2017-08-10T14:40:15.314Z,47.15
2017-08-10T14:42:43.675Z,46.36
2017-08-10T14:45:12.052Z,45.17
2017-08-10T14:47:40.805Z,44.42
2017-08-10T14:50:09.166Z,43.56
2017-08-10T14:52:37.730Z,44.55
2017-08-10T14:55:06.456Z,44.10
2017-08-10T14:57:34.825Z,43.36
2017-08-10T15:00:03.198Z,43.55
2017-08-10T15:02:31.993Z,43.74
2017-08-10T15:05:00.346Z,43.99
2017-08-10T15:07:28.718Z,43.90
2017-08-10T15:09:58.392Z,44.43
2017-08-10T15:12:26.734Z,44.86
2017-08-10T15:14:55.123Z,45.03
2017-08-10T15:17:23.903Z,45.52
2017-08-10T15:19:52.298Z,45.94
2017-08-10T15:22:20.806Z,46.76
2017-08-10T15:24:49.489Z,46.22
2017-08-10T15:27:17.905Z,46.84
2017-08-10T15:29:46.282Z,45.90
2017-08-10T15:32:15.872Z,45.48
2017-08-10T15:34:44.225Z,45.90
2017-08-10T15:37:12.606Z,46.19
2017-08-10T15:39:41.379Z,46.42
2017-08-10T15:42:09.769Z,46.46
2017-08-10T15:44:38.187Z,46.10
2017-08-10T15:47:06.978Z,46.34
2017-08-10T15:49:35.357Z,45.78
2017-08-10T15:52:03.731Z,46.00
2017-08-10T15:54:32.674Z,45.93
2017-08-10T15:57:01.031Z,46.26
2017-08-10T15:59:30.169Z,46.81
2017-08-10T16:01:58.934Z,46.59
2017-08-10T16:04:27.311Z,46.48
2017-08-10T16:06:55.666Z,46.58
2017-08-10T16:09:24.589Z,46.50
2017-08-10T16:11:52.981Z,46.53
2017-08-10T16:14:21.359Z,46.83
2017-08-10T16:16:50.233Z,46.95
2017-08-10T16:19:18.588Z,47.24
2017-08-10T16:21:47.721Z,47.51
2017-08-10T16:24:16.499Z,47.94
2017-08-10T16:26:44.864Z,47.09
2017-08-10T16:29:13.217Z,47.24
2017-08-10T16:31:42.350Z,46.90
2017-08-10T16:34:10.715Z,47.50
2017-08-10T16:36:39.843Z,47.10
2017-08-10T16:39:08.520Z,46.12
2017-08-10T16:41:36.921Z,46.44
2017-08-10T16:44:05.301Z,46.97
2017-08-10T16:46:34.297Z,47.20
2017-08-10T16:49:02.642Z,47.19
2017-08-10T16:51:31.016Z,47.65
2017-08-10T16:53:59.727Z,47.74
2017-08-10T16:56:28.121Z,47.79
2017-08-10T16:58:56.463Z,48.26
2017-08-10T17:01:25.346Z,48.86
2017-08-10T17:03:53.743Z,49.52
2017-08-10T17:06:22.138Z,49.19
2017-08-10T17:08:51.045Z,49.43
2017-08-10T17:11:19.412Z,49.19
2017-08-10T17:13:47.762Z,49.29
2017-08-10T17:16:16.600Z,49.14
2017-08-10T17:18:44.949Z,49.20
2017-08-10T17:21:13.311Z,49.94
2017-08-10T17:23:42.106Z,49.91
2017-08-10T17:26:10.481Z,50.53
2017-08-10T17:28:38.851Z,50.42
2017-08-10T17:31:07.529Z,50.76
2017-08-10T17:33:35.899Z,51.21
2017-08-10T17:36:05.018Z,50.86
2017-08-10T17:38:34.002Z,51.34
2017-08-10T17:41:02.373Z,50.80
2017-08-10T17:43:30.739Z,50.95
2017-08-10T17:45:59.417Z,51.08
2017-08-10T17:48:27.784Z,51.50
2017-08-10T17:50:56.160Z,51.05
2017-08-10T17:53:24.920Z,51.01
2017-08-10T17:55:53.325Z,51.21
2017-08-10T17:58:21.692Z,51.62
2017-08-10T18:00:51.498Z,51.64
2017-08-10T18:03:19.879Z,51.98
2017-08-10T18:05:48.243Z,52.08
2017-08-10T18:08:16.904Z,52.46
2017-08-10T18:10:46.035Z,52.47
2017-08-10T18:13:14.405Z,52.80
2017-08-10T18:15:43.060Z,53.21
2017-08-10T18:18:11.415Z,53.35
2017-08-10T18:20:39.792Z,53.59
2017-08-10T18:23:08.582Z,53.57
2017-08-10T18:25:36.923Z,53.41
2017-08-10T18:28:05.269Z,53.89
2017-08-10T18:30:34.200Z,53.89
2017-08-10T18:33:02.559Z,53.97
2017-08-10T18:35:30.964Z,54.48
2017-08-10T18:37:59.606Z,54.58
2017-08-10T18:40:27.956Z,54.76
2017-08-10T18:42:56.336Z,54.13
2017-08-10T18:45:25.294Z,54.24
2017-08-10T18:47:53.635Z,54.51
2017-08-10T18:50:22.765Z,55.01
2017-08-10T18:52:51.416Z,54.83
2017-08-10T18:55:20.506Z,54.80
2017-08-10T18:57:49.610Z,55.45
2017-08-10T19:00:19.250Z,55.50
2017-08-10T19:02:47.602Z,55.65
2017-08-10T19:05:15.971Z,55.75
2017-08-10T19:07:45.119Z,55.78
2017-08-10T19:10:13.533Z,56.12
2017-08-10T19:12:41.905Z,56.46
2017-08-10T19:15:10.766Z,56.00
2017-08-10T19:17:39.129Z,56.19
2017-08-10T19:20:07.470Z,56.42
2017-08-10T19:22:36.132Z,56.31
2017-08-10T19:25:04.495Z,56.76
2017-08-10T19:27:32.859Z,56.69
2017-08-10T19:30:01.874Z,57.21
2017-08-10T19:32:30.223Z,57.48
2017-08-10T19:34:58.575Z,57.59
2017-08-10T19:37:27.432Z,57.68
2017-08-10T19:39:55.790Z,57.66
2017-08-10T19:42:24.140Z,57.92
2017-08-10T19:44:52.757Z,58.21
2017-08-10T19:47:21.127Z,58.44
2017-08-10T19:49:49.478Z,58.35
2017-08-10T19:52:18.395Z,59.00
2017-08-10T19:54:46.782Z,59.37
2017-08-10T19:57:15.138Z,59.42
2017-08-10T19:59:43.836Z,59.69
2017-08-10T20:02:12.209Z,59.88
2017-08-10T20:04:40.588Z,60.36
2017-08-10T20:07:09.472Z,60.93
2017-08-10T20:09:37.838Z,60.45
2017-08-10T20:12:06.977Z,60.22
2017-08-10T20:14:35.764Z,60.31
2017-08-10T20:17:04.153Z,60.61
2017-08-10T20:19:32.533Z,60.59
2017-08-10T20:22:01.399Z,61.17
2017-08-10T20:24:29.788Z,61.77
2017-08-10T20:26:58.157Z,61.14
2017-08-10T20:29:26.840Z,61.08
2017-08-10T20:31:55.174Z,61.36
2017-08-10T20:34:23.545Z,61.50
2017-08-10T20:36:52.519Z,61.62
2017-08-10T20:39:20.858Z,61.52
2017-08-10T20:41:49.212Z,60.68
2017-08-10T20:44:17.837Z,61.79
2017-08-10T20:46:46.262Z,61.14
2017-08-10T20:49:14.685Z,60.77
2017-08-10T20:51:43.581Z,60.88
2017-08-10T20:54:11.974Z,61.07
2017-08-10T20:56:40.372Z,61.54
2017-08-10T20:59:09.156Z,61.64
2017-08-10T21:01:37.588Z,62.10
2017-08-10T21:04:06.726Z,63.00
2017-08-10T21:06:35.500Z,62.52
2017-08-10T21:09:08.127Z,62.44
2017-08-10T21:11:36.757Z,62.24
2017-08-10T21:14:05.136Z,62.26
2017-08-10T21:16:33.499Z,62.90
2017-08-10T21:19:02.194Z,63.18
2017-08-10T21:21:30.555Z,63.38
2017-08-10T21:23:59.699Z,63.17
2017-08-10T21:26:28.400Z,63.83
2017-08-10T21:28:56.775Z,64.15
2017-08-10T21:31:25.114Z,64.11
2017-08-10T21:33:54.542Z,64.20
2017-08-10T21:36:22.942Z,64.11
2017-08-10T21:38:51.383Z,64.74
2017-08-10T21:41:20.135Z,64.67
2017-08-10T21:43:48.507Z,64.97
2017-08-10T21:46:16.860Z,64.62
2017-08-10T21:48:45.593Z,64.92
2017-08-10T21:51:13.970Z,65.26
2017-08-10T21:53:42.332Z,65.71
2017-08-10T21:56:11.080Z,65.50
2017-08-10T21:58:39.463Z,64.59
2017-08-10T22:01:07.837Z,64.52
2017-08-10T22:03:36.552Z,64.87
2017-08-10T22:06:04.899Z,64.73
2017-08-10T22:08:33.270Z,64.48
2017-08-10T22:11:01.955Z,63.92
2017-08-10T22:13:30.367Z,64.25
2017-08-10T22:15:58.719Z,64.41
2017-08-10T22:18:27.610Z,64.02
2017-08-10T22:20:55.980Z,63.47
2017-08-10T22:23:24.336Z,63.49
2017-08-10T22:25:53.132Z,63.40
2017-08-10T22:28:22.249Z,63.42
2017-08-10T22:30:50.608Z,63.21
2017-08-10T22:33:19.549Z,63.23
2017-08-10T22:35:47.918Z,63.02
2017-08-10T22:38:16.287Z,62.95
2017-08-10T22:40:44.906Z,62.85
2017-08-10T22:43:13.287Z,62.50
2017-08-10T22:45:41.646Z,62.63
2017-08-10T22:48:10.436Z,61.89
2017-08-10T22:50:38.762Z,62.34
2017-08-10T22:53:07.115Z,62.05
2017-08-10T22:55:35.821Z,61.65
2017-08-10T22:58:04.227Z,62.09
2017-08-10T23:00:33.337Z,62.11
2017-08-10T23:03:01.980Z,61.50
2017-08-10T23:05:30.344Z,61.40
2017-08-10T23:07:58.779Z,62.29
2017-08-10T23:10:27.544Z,61.84
2017-08-10T23:12:55.987Z,62.15
2017-08-10T23:15:24.326Z,62.56
2017-08-10T23:17:52.981Z,61.99
2017-08-10T23:20:21.326Z,61.57
2017-08-10T23:22:49.671Z,61.61
2017-08-10T23:25:18.453Z,62.20
2017-08-10T23:27:46.808Z,62.24
2017-08-10T23:30:15.938Z,62.55
2017-08-10T23:32:44.615Z,62.55
2017-08-10T23:35:12.985Z,62.37
2017-08-10T23:37:41.366Z,62.12
2017-08-10T23:40:10.125Z,62.06
2017-08-10T23:42:38.469Z,61.83
2017-08-10T23:45:06.860Z,61.90
2017-08-10T23:47:35.620Z,61.84
2017-08-10T23:50:03.964Z,62.31
2017-08-10T23:52:32.321Z,62.10
2017-08-10T23:55:01.108Z,61.87
2017-08-10T23:57:29.465Z,61.64
2017-08-10T23:59:57.807Z,61.54
